createdAt,value
2023-05-14T00:00:20.329Z,36.31
2023-05-14T00:00:55.062Z,36.50
2023-05-14T00:01:28.335Z,36.44
2023-05-14T00:02:00.467Z,36.37
2023-05-14T00:02:35.252Z,36.49
2023-05-14T00:03:07.616Z,36.30
2023-05-14T00:03:41.324Z,36.48
2023-05-14T00:04:16.602Z,36.74
2023-05-14T00:04:48.836Z,36.38
2023-05-14T00:05:21.463Z,36.98
2023-05-14T00:05:56.181Z,36.59
2023-05-14T00:06:28.304Z,36.81
2023-05-14T00:07:01.097Z,37.11
2023-05-14T00:07:36.022Z,36.94
2023-05-14T00:08:08.290Z,37.34
2023-05-14T00:08:40.465Z,37.46
2023-05-14T00:09:15.790Z,37.34
2023-05-14T00:09:48.038Z,37.70
2023-05-14T00:10:22.228Z,37.72
2023-05-14T00:10:59.735Z,37.63
2023-05-14T00:11:31.883Z,37.34
2023-05-14T00:12:07.155Z,37.09
2023-05-14T00:12:39.375Z,37.10
2023-05-14T00:13:11.549Z,37.31
2023-05-14T00:13:46.269Z,37.29
2023-05-14T00:14:18.506Z,36.87
2023-05-14T00:14:50.698Z,37.10
2023-05-14T00:15:25.788Z,37.11
2023-05-14T00:15:57.972Z,37.11
2023-05-14T00:16:30.270Z,36.93
2023-05-14T00:17:05.085Z,36.73
2023-05-14T00:17:37.486Z,37.15
2023-05-14T00:18:12.444Z,37.04
2023-05-14T00:18:47.295Z,36.89
2023-05-14T00:19:19.568Z,36.96
2023-05-14T00:19:51.695Z,37.02
2023-05-14T00:20:26.447Z,36.55
2023-05-14T00:20:58.804Z,36.61
2023-05-14T00:21:32.037Z,37.02
2023-05-14T00:22:06.745Z,36.99
2023-05-14T00:22:39.523Z,36.98
2023-05-14T00:23:11.660Z,37.13
2023-05-14T00:23:43.848Z,36.92
2023-05-14T00:24:18.575Z,36.73
2023-05-14T00:24:50.808Z,37.02
2023-05-14T00:25:22.954Z,37.37
2023-05-14T00:26:00.265Z,37.09
2023-05-14T00:26:32.498Z,37.14
2023-05-14T00:27:05.156Z,37.22
2023-05-14T00:27:40.921Z,37.68
2023-05-14T00:28:13.136Z,37.42
2023-05-14T00:28:45.423Z,37.62
2023-05-14T00:29:20.204Z,37.31
2023-05-14T00:29:52.379Z,37.52
2023-05-14T00:30:24.773Z,37.10
2023-05-14T00:30:59.815Z,37.42
2023-05-14T00:31:32.032Z,36.94
2023-05-14T00:32:04.761Z,36.47
2023-05-14T00:32:39.739Z,36.06
2023-05-14T00:33:11.873Z,36.05
2023-05-14T00:33:44.040Z,36.09
2023-05-14T00:34:16.194Z,36.06
2023-05-14T00:34:50.980Z,35.62
2023-05-14T00:35:23.414Z,35.65
2023-05-14T00:35:55.545Z,35.67
2023-05-14T00:36:30.319Z,35.80
2023-05-14T00:37:02.455Z,35.44
2023-05-14T00:37:34.728Z,35.51
2023-05-14T00:38:09.427Z,35.31
2023-05-14T00:38:41.564Z,35.42
2023-05-14T00:39:16.360Z,35.34
2023-05-14T00:39:48.509Z,35.17
2023-05-14T00:40:23.145Z,35.31
2023-05-14T00:41:00.673Z,34.92
2023-05-14T00:41:32.849Z,35.05
2023-05-14T00:42:05.239Z,35.09
2023-05-14T00:42:40.033Z,35.08
2023-05-14T00:43:12.610Z,34.78
2023-05-14T00:43:44.796Z,35.04
2023-05-14T00:44:19.514Z,34.85
2023-05-14T00:44:51.652Z,34.59
2023-05-14T00:45:23.948Z,34.96
2023-05-14T00:45:58.798Z,34.74
2023-05-14T00:46:31.092Z,34.68
2023-05-14T00:47:03.758Z,34.75
2023-05-14T00:47:39.610Z,35.27
2023-05-14T00:48:12.193Z,35.07
2023-05-14T00:48:45.320Z,35.48
2023-05-14T00:49:18.360Z,35.40
2023-05-14T00:49:53.393Z,35.15
2023-05-14T00:50:26.275Z,35.22
2023-05-14T00:50:58.651Z,34.81
2023-05-14T00:51:34.790Z,35.19
2023-05-14T00:52:07.475Z,34.66
2023-05-14T00:52:40.747Z,34.60
2023-05-14T00:53:16.154Z,35.04
2023-05-14T00:53:49.071Z,34.73
2023-05-14T00:54:21.684Z,34.43
2023-05-14T00:54:57.477Z,34.66
2023-05-14T00:55:31.130Z,34.36
2023-05-14T00:56:08.441Z,34.68
2023-05-14T00:56:43.261Z,34.86
2023-05-14T00:57:15.554Z,34.21
2023-05-14T00:57:47.810Z,34.50
2023-05-14T00:58:20.483Z,34.42
2023-05-14T00:58:55.212Z,34.10
2023-05-14T00:59:27.422Z,34.22
2023-05-14T00:59:59.965Z,34.45
2023-05-14T01:00:34.736Z,33.95
2023-05-14T01:01:06.976Z,33.94
2023-05-14T01:01:39.293Z,34.43
2023-05-14T01:02:14.300Z,34.25
2023-05-14T01:02:46.728Z,33.89
2023-05-14T01:03:18.974Z,33.69
2023-05-14T01:03:53.639Z,33.85
2023-05-14T01:04:28.831Z,34.21
2023-05-14T01:05:01.831Z,34.30
2023-05-14T01:05:42.386Z,34.26
2023-05-14T01:06:24.623Z,34.34
2023-05-14T01:07:09.257Z,34.07
2023-05-14T01:07:52.480Z,34.36
2023-05-14T01:08:32.981Z,34.34
2023-05-14T01:09:16.689Z,34.05
2023-05-14T01:09:54.274Z,34.13
2023-05-14T01:10:32.959Z,34.09
2023-05-14T01:11:15.634Z,34.12
2023-05-14T01:12:00.098Z,34.17
2023-05-14T01:12:38.092Z,34.18
2023-05-14T01:13:21.312Z,33.87
2023-05-14T01:14:03.836Z,34.07
2023-05-14T01:14:45.351Z,34.40
2023-05-14T01:15:24.429Z,34.02
2023-05-14T01:15:57.466Z,34.15
2023-05-14T01:16:31.437Z,34.41
2023-05-14T01:17:08.157Z,34.31
2023-05-14T01:17:46.590Z,34.43
2023-05-14T01:18:19.772Z,34.13
2023-05-14T01:18:55.590Z,34.14
2023-05-14T01:19:35.895Z,34.10
2023-05-14T01:20:09.415Z,34.04
2023-05-14T01:20:44.699Z,34.35
2023-05-14T01:21:37.539Z,34.45
2023-05-14T01:22:10.494Z,34.15
2023-05-14T01:22:45.594Z,34.33
2023-05-14T01:23:17.790Z,34.55
2023-05-14T01:23:50.008Z,34.25
2023-05-14T01:24:24.728Z,34.43
2023-05-14T01:24:56.977Z,34.72
2023-05-14T01:25:30.167Z,34.53
2023-05-14T01:26:05.200Z,34.85
2023-05-14T01:26:37.783Z,34.67
2023-05-14T01:27:15.577Z,35.01
2023-05-14T01:27:59.182Z,35.20
2023-05-14T01:28:36.319Z,35.64
2023-05-14T01:29:15.546Z,35.98
2023-05-14T01:29:56.170Z,35.41
2023-05-14T01:30:32.453Z,35.85
2023-05-14T01:31:11.168Z,35.74
2023-05-14T01:31:48.587Z,36.12
2023-05-14T01:32:24.745Z,35.72
2023-05-14T01:33:00.714Z,35.88
2023-05-14T01:33:37.007Z,35.88
2023-05-14T01:34:11.453Z,35.44
2023-05-14T01:34:46.676Z,35.38
2023-05-14T01:35:25.311Z,35.20
2023-05-14T01:35:58.801Z,35.37
2023-05-14T01:36:34.885Z,35.29
2023-05-14T01:37:12.249Z,35.16
2023-05-14T01:37:46.184Z,35.41
2023-05-14T01:38:20.842Z,35.31
2023-05-14T01:38:54.345Z,35.20
2023-05-14T01:39:32.595Z,35.44
2023-05-14T01:40:06.808Z,35.11
2023-05-14T01:40:39.661Z,34.89
2023-05-14T01:41:17.303Z,34.39
2023-05-14T01:41:50.483Z,33.95
2023-05-14T01:42:26.700Z,34.25
2023-05-14T01:42:59.590Z,34.21
2023-05-14T01:43:32.469Z,34.61
2023-05-14T01:44:07.592Z,34.47
2023-05-14T01:44:39.795Z,34.18
2023-05-14T01:45:12.263Z,34.30
2023-05-14T01:45:47.313Z,34.49
2023-05-14T01:46:19.652Z,34.12
2023-05-14T01:46:51.893Z,34.48
2023-05-14T01:47:24.086Z,34.42
2023-05-14T01:47:59.293Z,34.05
2023-05-14T01:48:31.557Z,34.16
2023-05-14T01:49:03.935Z,33.93
2023-05-14T01:49:37.379Z,33.68
2023-05-14T01:50:13.446Z,33.81
2023-05-14T01:50:45.998Z,34.09
2023-05-14T01:51:18.158Z,34.03
2023-05-14T01:51:52.929Z,34.28
2023-05-14T01:52:27.682Z,34.55
2023-05-14T01:52:59.979Z,34.19
2023-05-14T01:53:35.102Z,34.21
2023-05-14T01:54:09.833Z,34.23
2023-05-14T01:54:42.089Z,34.01
2023-05-14T01:55:14.537Z,34.01
2023-05-14T01:55:49.258Z,33.92
2023-05-14T01:56:25.695Z,34.86
2023-05-14T01:56:57.853Z,34.92
2023-05-14T01:57:32.550Z,35.06
2023-05-14T01:58:04.828Z,34.90
2023-05-14T01:58:37.110Z,35.14
2023-05-14T01:59:09.375Z,35.43
2023-05-14T01:59:44.421Z,35.01
2023-05-14T02:00:17.158Z,35.38
2023-05-14T02:00:49.275Z,35.70
2023-05-14T02:01:26.335Z,35.19
2023-05-14T02:01:58.863Z,35.47
2023-05-14T02:02:31.300Z,35.88
2023-05-14T02:03:06.216Z,35.62
2023-05-14T02:03:38.608Z,36.04
2023-05-14T02:04:10.808Z,35.52
2023-05-14T02:04:45.654Z,35.75
2023-05-14T02:05:18.116Z,35.46
2023-05-14T02:05:50.269Z,35.98
2023-05-14T02:06:24.972Z,35.75
2023-05-14T02:06:59.691Z,35.93
2023-05-14T02:07:31.878Z,35.87
2023-05-14T02:08:06.922Z,35.98
2023-05-14T02:08:39.149Z,36.18
2023-05-14T02:09:11.479Z,36.26
2023-05-14T02:09:46.549Z,36.32
2023-05-14T02:10:19.001Z,36.67
2023-05-14T02:10:54.995Z,36.96
2023-05-14T02:11:32.442Z,37.06
2023-05-14T02:12:05.022Z,37.04
2023-05-14T02:12:37.291Z,37.06
2023-05-14T02:13:12.434Z,37.10
2023-05-14T02:13:44.661Z,36.98
2023-05-14T02:14:16.999Z,36.75
2023-05-14T02:14:51.695Z,37.02
2023-05-14T02:15:23.854Z,37.08
2023-05-14T02:15:56.168Z,37.26
2023-05-14T02:16:30.968Z,37.10
2023-05-14T02:17:03.706Z,36.52
2023-05-14T02:17:35.988Z,36.84
2023-05-14T02:18:10.778Z,36.58
2023-05-14T02:18:43.044Z,36.63
2023-05-14T02:19:15.349Z,36.53
2023-05-14T02:19:50.228Z,36.31
2023-05-14T02:20:22.711Z,36.39
2023-05-14T02:20:54.974Z,36.53
2023-05-14T02:21:30.314Z,36.64
2023-05-14T02:22:05.580Z,36.62
2023-05-14T02:22:42.349Z,36.42
2023-05-14T02:23:17.088Z,36.39
2023-05-14T02:23:49.707Z,36.46
2023-05-14T02:24:22.006Z,36.28
2023-05-14T02:24:56.697Z,36.21
2023-05-14T02:25:28.810Z,36.39
2023-05-14T02:26:01.403Z,36.64
2023-05-14T02:26:33.670Z,36.58
2023-05-14T02:27:09.046Z,36.88
2023-05-14T02:27:41.222Z,36.96
2023-05-14T02:28:13.636Z,37.16
2023-05-14T02:28:48.826Z,37.17
2023-05-14T02:29:20.961Z,36.83
2023-05-14T02:29:53.407Z,37.10
2023-05-14T02:30:28.131Z,37.46
2023-05-14T02:31:00.730Z,37.06
2023-05-14T02:31:32.939Z,37.25
2023-05-14T02:32:08.567Z,37.41
2023-05-14T02:32:40.932Z,37.60
2023-05-14T02:33:13.328Z,37.68
2023-05-14T02:33:48.336Z,37.33
2023-05-14T02:34:20.471Z,37.64
2023-05-14T02:34:52.927Z,37.84
2023-05-14T02:35:27.939Z,38.24
2023-05-14T02:36:00.079Z,37.91
2023-05-14T02:36:32.466Z,38.38
2023-05-14T02:37:07.397Z,37.99
2023-05-14T02:37:42.154Z,38.11
2023-05-14T02:38:14.406Z,38.33
2023-05-14T02:38:46.635Z,38.64
2023-05-14T02:39:21.380Z,38.53
2023-05-14T02:39:53.661Z,38.78
2023-05-14T02:40:28.042Z,39.28
2023-05-14T02:41:02.811Z,39.18
2023-05-14T02:41:34.987Z,39.33
2023-05-14T02:42:07.682Z,39.12
2023-05-14T02:42:42.411Z,39.18
2023-05-14T02:43:14.532Z,39.26
2023-05-14T02:43:46.762Z,39.24
2023-05-14T02:44:22.375Z,39.34
2023-05-14T02:44:54.548Z,39.35
2023-05-14T02:45:26.919Z,39.13
2023-05-14T02:46:01.609Z,39.61
2023-05-14T02:46:33.942Z,39.58
2023-05-14T02:47:07.447Z,39.42
2023-05-14T02:47:42.443Z,39.43
2023-05-14T02:48:14.647Z,39.13
2023-05-14T02:48:46.833Z,39.15
2023-05-14T02:49:21.647Z,39.11
2023-05-14T02:49:53.821Z,38.68
2023-05-14T02:50:26.150Z,38.24
2023-05-14T02:51:01.125Z,38.62
2023-05-14T02:51:33.324Z,38.48
2023-05-14T02:52:09.278Z,37.97
2023-05-14T02:52:44.055Z,37.48
2023-05-14T02:53:16.265Z,37.53
2023-05-14T02:53:48.419Z,37.24
2023-05-14T02:54:23.171Z,37.38
2023-05-14T02:54:55.481Z,37.19
2023-05-14T02:55:27.658Z,36.64
2023-05-14T02:56:02.427Z,36.70
2023-05-14T02:56:34.708Z,36.94
2023-05-14T02:57:06.867Z,36.46
2023-05-14T02:57:41.735Z,36.26
2023-05-14T02:58:13.947Z,36.15
2023-05-14T02:58:48.722Z,35.92
2023-05-14T02:59:20.994Z,36.24
2023-05-14T02:59:53.724Z,35.85
2023-05-14T03:00:28.852Z,35.88
2023-05-14T03:01:01.513Z,36.15
2023-05-14T03:01:34.317Z,35.74
2023-05-14T03:02:09.465Z,36.01
2023-05-14T03:02:43.798Z,35.89
2023-05-14T03:03:17.119Z,35.85
2023-05-14T03:03:52.747Z,35.83
2023-05-14T03:04:25.020Z,35.86
2023-05-14T03:04:57.157Z,35.93
2023-05-14T03:05:31.870Z,36.41
2023-05-14T03:06:04.489Z,36.52
2023-05-14T03:06:36.664Z,36.27
2023-05-14T03:07:13.965Z,36.49
2023-05-14T03:07:46.156Z,36.27
2023-05-14T03:08:18.721Z,36.66
2023-05-14T03:08:53.505Z,36.19
2023-05-14T03:09:25.683Z,36.27
2023-05-14T03:10:00.465Z,36.07
2023-05-14T03:10:35.484Z,36.09
2023-05-14T03:11:07.745Z,36.51
2023-05-14T03:11:40.217Z,36.66
2023-05-14T03:12:15.666Z,36.62
2023-05-14T03:12:47.917Z,36.65
2023-05-14T03:13:20.972Z,36.61
2023-05-14T03:13:55.764Z,36.21
2023-05-14T03:14:27.942Z,36.44
2023-05-14T03:15:00.140Z,36.62
2023-05-14T03:15:32.378Z,36.56
2023-05-14T03:16:07.481Z,36.12
2023-05-14T03:16:40.322Z,36.12
2023-05-14T03:17:12.740Z,36.64
2023-05-14T03:17:47.583Z,36.47
2023-05-14T03:18:19.926Z,36.70
2023-05-14T03:18:54.762Z,36.51
2023-05-14T03:19:26.984Z,36.27
2023-05-14T03:19:59.174Z,36.61
2023-05-14T03:20:34.776Z,36.36
2023-05-14T03:21:07.092Z,36.07
2023-05-14T03:21:39.281Z,36.60
2023-05-14T03:22:16.589Z,36.46
2023-05-14T03:22:48.866Z,35.94
2023-05-14T03:23:21.014Z,36.01
2023-05-14T03:23:56.234Z,36.52
2023-05-14T03:24:28.416Z,36.58
2023-05-14T03:25:00.734Z,36.27
2023-05-14T03:25:35.685Z,36.07
2023-05-14T03:26:08.544Z,37.11
2023-05-14T03:26:41.386Z,38.06
2023-05-14T03:27:16.125Z,38.30
2023-05-14T03:27:48.237Z,38.49
2023-05-14T03:28:20.535Z,38.92
2023-05-14T03:28:55.302Z,38.53
2023-05-14T03:29:27.515Z,38.27
2023-05-14T03:30:00.235Z,38.05
2023-05-14T03:30:32.534Z,38.29
2023-05-14T03:31:07.463Z,38.40
2023-05-14T03:31:39.677Z,37.76
2023-05-14T03:32:11.827Z,37.88
2023-05-14T03:32:46.708Z,37.75
2023-05-14T03:33:18.995Z,37.79
2023-05-14T03:33:51.208Z,37.29
2023-05-14T03:34:26.017Z,37.27
2023-05-14T03:34:58.239Z,37.19
2023-05-14T03:35:30.508Z,37.37
2023-05-14T03:36:05.323Z,37.54
2023-05-14T03:36:40.629Z,37.50
2023-05-14T03:37:15.365Z,38.08
2023-05-14T03:37:47.656Z,38.15
2023-05-14T03:38:22.373Z,38.40
2023-05-14T03:38:54.675Z,38.01
2023-05-14T03:39:26.902Z,38.05
2023-05-14T03:40:01.613Z,38.19
2023-05-14T03:40:33.982Z,38.01
2023-05-14T03:41:06.175Z,38.35
2023-05-14T03:41:40.974Z,38.12
2023-05-14T03:42:13.191Z,37.97
2023-05-14T03:42:45.341Z,37.62
2023-05-14T03:43:20.074Z,38.03
2023-05-14T03:43:53.859Z,37.79
2023-05-14T03:44:26.096Z,37.41
2023-05-14T03:45:01.175Z,37.29
2023-05-14T03:45:34.166Z,36.53
2023-05-14T03:46:06.382Z,36.21
2023-05-14T03:46:41.182Z,35.73
2023-05-14T03:47:13.389Z,35.25
2023-05-14T03:47:45.852Z,35.17
2023-05-14T03:48:20.718Z,35.33
2023-05-14T03:48:53.018Z,35.12
2023-05-14T03:49:25.643Z,34.53
2023-05-14T03:50:01.200Z,35.41
2023-05-14T03:50:33.665Z,36.22
2023-05-14T03:51:06.016Z,35.67
2023-05-14T03:51:42.598Z,35.63
2023-05-14T03:52:17.333Z,36.28
2023-05-14T03:52:50.260Z,36.33
2023-05-14T03:53:25.022Z,36.58
2023-05-14T03:53:58.376Z,36.65
2023-05-14T03:54:30.645Z,36.79
2023-05-14T03:55:05.392Z,36.74
2023-05-14T03:55:38.038Z,36.73
2023-05-14T03:56:10.292Z,36.18
2023-05-14T03:56:45.023Z,35.92
2023-05-14T03:57:17.160Z,35.97
2023-05-14T03:57:49.413Z,36.10
2023-05-14T03:58:24.428Z,36.14
2023-05-14T03:58:56.629Z,35.85
2023-05-14T03:59:28.905Z,36.03
2023-05-14T04:00:03.606Z,35.99
2023-05-14T04:00:48.883Z,36.51
2023-05-14T04:01:23.604Z,36.57
2023-05-14T04:01:56.114Z,36.72
2023-05-14T04:02:28.283Z,36.84
2023-05-14T04:03:03.954Z,36.56
2023-05-14T04:03:36.382Z,36.43
2023-05-14T04:04:09.148Z,36.53
2023-05-14T04:04:42.437Z,36.69
2023-05-14T04:05:17.210Z,36.26
2023-05-14T04:05:51.509Z,36.66
2023-05-14T04:06:24.673Z,36.60
2023-05-14T04:06:59.406Z,36.16
2023-05-14T04:07:36.684Z,36.15
2023-05-14T04:08:08.888Z,36.02
2023-05-14T04:08:43.617Z,36.15
2023-05-14T04:09:15.797Z,35.91
2023-05-14T04:09:47.949Z,35.54
2023-05-14T04:10:20.425Z,35.94
2023-05-14T04:10:55.456Z,35.94
2023-05-14T04:11:28.480Z,35.64
2023-05-14T04:12:00.768Z,35.65
2023-05-14T04:12:35.679Z,35.76
2023-05-14T04:13:08.391Z,35.31
2023-05-14T04:13:43.686Z,35.17
2023-05-14T04:14:18.718Z,35.22
2023-05-14T04:14:50.860Z,35.60
2023-05-14T04:15:23.512Z,35.26
2023-05-14T04:15:55.963Z,35.47
2023-05-14T04:16:31.980Z,35.28
2023-05-14T04:17:04.695Z,34.82
2023-05-14T04:17:36.807Z,35.17
2023-05-14T04:18:11.666Z,34.92
2023-05-14T04:18:43.886Z,35.27
2023-05-14T04:19:16.201Z,35.51
2023-05-14T04:19:51.052Z,35.44
2023-05-14T04:20:23.673Z,35.70
2023-05-14T04:20:58.590Z,35.65
2023-05-14T04:21:30.912Z,36.12
2023-05-14T04:22:03.102Z,35.85
2023-05-14T04:22:40.357Z,36.23
2023-05-14T04:23:12.587Z,36.22
2023-05-14T04:23:44.704Z,36.50
2023-05-14T04:24:20.114Z,36.97
2023-05-14T04:24:53.377Z,36.34
2023-05-14T04:25:25.502Z,36.09
2023-05-14T04:26:00.279Z,36.13
2023-05-14T04:26:32.448Z,36.42
2023-05-14T04:27:05.402Z,36.49
2023-05-14T04:27:40.240Z,36.51
2023-05-14T04:28:12.483Z,36.71
2023-05-14T04:28:44.590Z,36.86
2023-05-14T04:29:19.309Z,36.69
2023-05-14T04:29:51.565Z,36.78
2023-05-14T04:30:23.936Z,36.92
2023-05-14T04:30:58.814Z,36.67
2023-05-14T04:31:31.883Z,36.21
2023-05-14T04:32:04.880Z,36.76
2023-05-14T04:32:38.090Z,36.52
2023-05-14T04:33:13.084Z,36.54
2023-05-14T04:33:45.205Z,36.12
2023-05-14T04:34:17.347Z,36.50
2023-05-14T04:34:52.058Z,37.03
2023-05-14T04:35:25.157Z,36.88
2023-05-14T04:35:57.453Z,37.47
2023-05-14T04:36:32.539Z,37.35
2023-05-14T04:37:05.253Z,37.25
2023-05-14T04:37:40.653Z,36.88
2023-05-14T04:38:15.741Z,36.80
2023-05-14T04:38:47.891Z,36.90
2023-05-14T04:39:20.037Z,37.35
2023-05-14T04:39:54.743Z,37.31
2023-05-14T04:40:27.437Z,37.15
2023-05-14T04:40:59.702Z,36.94
2023-05-14T04:41:34.531Z,36.73
2023-05-14T04:42:08.010Z,36.65
2023-05-14T04:42:40.165Z,36.42
2023-05-14T04:43:14.916Z,36.47
2023-05-14T04:43:50.012Z,36.64
2023-05-14T04:44:22.152Z,36.73
2023-05-14T04:44:56.876Z,36.58
2023-05-14T04:45:29.164Z,36.67
2023-05-14T04:46:01.334Z,36.77
2023-05-14T04:46:36.164Z,37.32
2023-05-14T04:47:08.358Z,37.11
2023-05-14T04:47:40.632Z,37.26
2023-05-14T04:48:15.378Z,37.06
2023-05-14T04:48:48.451Z,37.36
2023-05-14T04:49:23.707Z,37.60
2023-05-14T04:49:55.879Z,37.78
2023-05-14T04:50:28.101Z,37.19
2023-05-14T04:51:04.028Z,37.46
2023-05-14T04:51:37.729Z,37.34
2023-05-14T04:52:10.061Z,37.19
2023-05-14T04:52:47.383Z,38.07
2023-05-14T04:53:19.581Z,37.77
2023-05-14T04:53:51.702Z,37.43
2023-05-14T04:54:26.606Z,37.89
2023-05-14T04:54:58.886Z,37.79
2023-05-14T04:55:31.227Z,37.79
2023-05-14T04:56:05.970Z,37.90
2023-05-14T04:56:38.102Z,38.12
2023-05-14T04:57:10.257Z,37.71
2023-05-14T04:57:45.095Z,37.95
2023-05-14T04:58:17.231Z,37.82
2023-05-14T04:58:49.432Z,37.76
2023-05-14T04:59:24.219Z,37.75
2023-05-14T04:59:56.384Z,37.78
2023-05-14T05:00:28.962Z,37.98
2023-05-14T05:01:03.739Z,37.98
2023-05-14T05:01:36.406Z,37.67
2023-05-14T05:02:08.754Z,37.75
2023-05-14T05:02:43.642Z,38.24
2023-05-14T05:03:16.052Z,38.03
2023-05-14T05:03:48.224Z,37.83
2023-05-14T05:04:24.095Z,37.91
2023-05-14T05:04:56.353Z,38.51
2023-05-14T05:05:28.524Z,38.39
2023-05-14T05:06:03.346Z,38.39
2023-05-14T05:06:35.473Z,38.64
2023-05-14T05:07:07.618Z,38.77
2023-05-14T05:07:42.338Z,38.65
2023-05-14T05:08:17.042Z,38.28
2023-05-14T05:08:49.307Z,38.98
2023-05-14T05:09:23.996Z,38.64
2023-05-14T05:09:56.132Z,38.88
2023-05-14T05:10:28.248Z,38.59
2023-05-14T05:11:00.368Z,39.07
2023-05-14T05:11:35.116Z,39.43
2023-05-14T05:12:08.146Z,39.43
2023-05-14T05:12:40.293Z,39.30
2023-05-14T05:13:17.130Z,39.30
2023-05-14T05:13:49.259Z,39.71
2023-05-14T05:14:24.152Z,39.90
2023-05-14T05:14:56.674Z,40.05
2023-05-14T05:15:28.821Z,39.75
2023-05-14T05:16:03.564Z,40.25
2023-05-14T05:16:35.776Z,40.54
2023-05-14T05:17:08.747Z,40.13
2023-05-14T05:17:43.525Z,40.46
2023-05-14T05:18:15.729Z,40.63
2023-05-14T05:18:47.904Z,39.97
2023-05-14T05:19:35.878Z,40.55
2023-05-14T05:20:13.604Z,40.23
2023-05-14T05:20:48.321Z,40.48
2023-05-14T05:21:20.508Z,40.70
2023-05-14T05:21:52.716Z,40.30
2023-05-14T05:22:27.602Z,40.29
2023-05-14T05:22:59.834Z,40.57
2023-05-14T05:23:34.623Z,40.18
2023-05-14T05:24:09.874Z,40.29
2023-05-14T05:24:42.189Z,40.57
2023-05-14T05:25:14.449Z,40.48
2023-05-14T05:25:49.192Z,39.87
2023-05-14T05:26:22.476Z,39.75
2023-05-14T05:26:55.950Z,40.14
2023-05-14T05:27:28.087Z,39.77
2023-05-14T05:28:02.771Z,39.50
2023-05-14T05:28:34.949Z,39.52
2023-05-14T05:29:07.724Z,39.51
2023-05-14T05:29:42.848Z,39.43
2023-05-14T05:30:15.036Z,39.23
2023-05-14T05:30:47.254Z,39.43
2023-05-14T05:31:22.373Z,39.35
2023-05-14T05:31:54.613Z,39.53
2023-05-14T05:32:26.893Z,39.91
2023-05-14T05:33:02.284Z,39.45
2023-05-14T05:33:35.104Z,39.83
2023-05-14T05:34:07.369Z,40.01
2023-05-14T05:34:42.275Z,40.08
2023-05-14T05:35:14.520Z,40.00
2023-05-14T05:35:50.280Z,40.23
2023-05-14T05:36:22.422Z,39.54
2023-05-14T05:36:54.618Z,39.51
2023-05-14T05:37:29.345Z,39.80
2023-05-14T05:38:01.943Z,39.39
2023-05-14T05:38:36.793Z,39.76
2023-05-14T05:39:11.583Z,38.88
2023-05-14T05:39:43.803Z,39.19
2023-05-14T05:40:16.242Z,38.61
2023-05-14T05:40:51.054Z,38.86
2023-05-14T05:41:23.294Z,38.56
2023-05-14T05:41:55.444Z,38.28
2023-05-14T05:42:30.296Z,37.88
2023-05-14T05:43:02.451Z,37.09
2023-05-14T05:43:34.682Z,37.11
2023-05-14T05:44:09.623Z,36.50
2023-05-14T05:44:41.756Z,36.71
2023-05-14T05:45:13.951Z,35.63
2023-05-14T05:45:48.724Z,35.55
2023-05-14T05:46:20.875Z,35.32
2023-05-14T05:46:53.073Z,35.35
2023-05-14T05:47:27.784Z,35.09
2023-05-14T05:48:00.193Z,35.09
2023-05-14T05:48:32.358Z,34.79
2023-05-14T05:49:07.045Z,34.71
2023-05-14T05:49:39.265Z,34.32
2023-05-14T05:50:11.577Z,34.13
2023-05-14T05:50:47.712Z,34.51
2023-05-14T05:51:19.955Z,34.71
2023-05-14T05:51:52.079Z,33.99
2023-05-14T05:52:26.845Z,34.18
2023-05-14T05:52:59.496Z,34.04
2023-05-14T05:53:31.677Z,34.00
2023-05-14T05:54:11.711Z,34.23
2023-05-14T05:54:43.811Z,33.91
2023-05-14T05:55:16.116Z,34.33
2023-05-14T05:55:48.284Z,34.16
2023-05-14T05:56:23.047Z,33.98
2023-05-14T05:56:55.201Z,34.09
2023-05-14T05:57:27.591Z,34.69
2023-05-14T05:57:59.795Z,34.14
2023-05-14T05:58:34.554Z,34.28
2023-05-14T05:59:06.827Z,34.52
2023-05-14T05:59:38.955Z,34.54
2023-05-14T06:00:17.512Z,34.24
2023-05-14T06:00:49.655Z,34.01
2023-05-14T06:01:21.786Z,34.30
2023-05-14T06:01:56.819Z,33.88
2023-05-14T06:02:29.018Z,33.49
2023-05-14T06:03:01.574Z,33.60
2023-05-14T06:03:36.595Z,33.38
2023-05-14T06:04:08.723Z,33.52
2023-05-14T06:04:40.962Z,33.34
2023-05-14T06:05:16.031Z,32.94
2023-05-14T06:05:48.256Z,33.06
2023-05-14T06:06:20.552Z,32.66
2023-05-14T06:06:55.293Z,33.01
2023-05-14T06:07:27.499Z,32.79
2023-05-14T06:08:00.035Z,33.07
2023-05-14T06:08:34.846Z,32.94
2023-05-14T06:09:09.729Z,32.79
2023-05-14T06:09:41.914Z,32.76
2023-05-14T06:10:16.658Z,32.93
2023-05-14T06:10:48.838Z,32.87
2023-05-14T06:11:22.011Z,33.06
2023-05-14T06:11:56.715Z,33.13
2023-05-14T06:12:28.897Z,33.40
2023-05-14T06:13:01.203Z,33.39
2023-05-14T06:13:36.249Z,32.98
2023-05-14T06:14:08.443Z,33.25
2023-05-14T06:14:40.696Z,33.48
2023-05-14T06:15:15.596Z,33.34
2023-05-14T06:15:47.897Z,33.48
2023-05-14T06:16:20.160Z,33.38
2023-05-14T06:16:54.943Z,33.67
2023-05-14T06:17:27.299Z,33.73
2023-05-14T06:18:02.149Z,33.66
2023-05-14T06:18:34.399Z,33.55
2023-05-14T06:19:06.813Z,33.41
2023-05-14T06:19:41.949Z,33.22
2023-05-14T06:20:14.207Z,33.62
2023-05-14T06:20:48.938Z,33.67
2023-05-14T06:21:21.240Z,33.27
2023-05-14T06:21:53.410Z,33.81
2023-05-14T06:22:25.605Z,33.61
2023-05-14T06:23:00.290Z,34.20
2023-05-14T06:23:33.697Z,33.99
2023-05-14T06:24:06.665Z,33.46
2023-05-14T06:24:43.969Z,33.96
2023-05-14T06:25:16.224Z,34.07
2023-05-14T06:25:50.754Z,33.59
2023-05-14T06:26:26.175Z,33.68
2023-05-14T06:26:58.405Z,33.79
2023-05-14T06:27:30.649Z,33.69
2023-05-14T06:28:05.350Z,34.19
2023-05-14T06:28:37.616Z,33.82
2023-05-14T06:29:09.765Z,33.78
2023-05-14T06:29:44.562Z,33.85
2023-05-14T06:30:16.734Z,33.80
2023-05-14T06:30:50.420Z,34.36
2023-05-14T06:31:25.217Z,34.42
2023-05-14T06:32:01.495Z,34.35
2023-05-14T06:32:33.909Z,34.33
2023-05-14T06:33:08.635Z,34.03
2023-05-14T06:33:40.900Z,33.91
2023-05-14T06:34:13.035Z,34.17
2023-05-14T06:34:47.738Z,34.57
2023-05-14T06:35:20.181Z,33.80
2023-05-14T06:35:52.553Z,34.15
2023-05-14T06:36:27.299Z,33.88
2023-05-14T06:36:59.577Z,34.27
2023-05-14T06:37:31.731Z,34.46
2023-05-14T06:38:06.624Z,34.48
2023-05-14T06:38:38.738Z,34.44
2023-05-14T06:39:10.926Z,34.24
2023-05-14T06:39:50.272Z,34.26
2023-05-14T06:40:23.015Z,34.34
2023-05-14T06:40:55.594Z,34.40
2023-05-14T06:41:30.323Z,34.28
2023-05-14T06:42:02.570Z,34.65
2023-05-14T06:42:36.166Z,34.18
2023-05-14T06:43:12.499Z,34.93
2023-05-14T06:43:44.744Z,34.66
2023-05-14T06:44:19.646Z,35.44
2023-05-14T06:44:54.762Z,35.14
2023-05-14T06:45:27.277Z,34.65
2023-05-14T06:45:59.438Z,34.80
2023-05-14T06:46:34.224Z,35.09
2023-05-14T06:47:08.671Z,34.90
2023-05-14T06:47:41.484Z,34.77
2023-05-14T06:48:16.663Z,35.09
2023-05-14T06:48:49.010Z,35.39
2023-05-14T06:49:21.459Z,35.93
2023-05-14T06:49:58.729Z,35.49
2023-05-14T06:50:31.453Z,35.14
2023-05-14T06:51:06.677Z,35.43
2023-05-14T06:51:39.260Z,35.33
2023-05-14T06:52:11.537Z,35.56
2023-05-14T06:52:46.830Z,35.46
2023-05-14T06:53:18.974Z,35.40
2023-05-14T06:53:52.477Z,35.08
2023-05-14T06:54:27.216Z,35.47
2023-05-14T06:55:02.009Z,34.97
2023-05-14T06:55:36.908Z,34.70
2023-05-14T06:56:09.104Z,34.67
2023-05-14T06:56:43.981Z,34.88
2023-05-14T06:57:16.204Z,35.02
2023-05-14T06:57:48.503Z,34.46
2023-05-14T06:58:23.198Z,35.02
2023-05-14T06:58:55.350Z,35.04
2023-05-14T06:59:27.541Z,34.71
2023-05-14T07:00:03.662Z,34.63
2023-05-14T07:00:36.567Z,34.60
2023-05-14T07:01:08.774Z,34.56
2023-05-14T07:01:43.629Z,34.86
2023-05-14T07:02:15.872Z,34.56
2023-05-14T07:02:48.027Z,34.63
2023-05-14T07:03:22.830Z,34.42
2023-05-14T07:03:55.111Z,34.81
2023-05-14T07:04:27.308Z,34.72
2023-05-14T07:04:59.437Z,34.06
2023-05-14T07:05:34.189Z,34.37
2023-05-14T07:06:07.194Z,34.55
2023-05-14T07:06:39.366Z,34.18
2023-05-14T07:07:15.620Z,34.28
2023-05-14T07:07:47.757Z,33.96
2023-05-14T07:08:19.863Z,34.54
2023-05-14T07:08:54.641Z,34.18
2023-05-14T07:09:26.776Z,34.02
2023-05-14T07:10:04.079Z,34.51
2023-05-14T07:10:36.192Z,34.07
2023-05-14T07:11:08.372Z,34.54
2023-05-14T07:11:43.170Z,34.48
2023-05-14T07:12:15.312Z,33.98
2023-05-14T07:12:47.588Z,33.94
2023-05-14T07:13:22.380Z,33.83
2023-05-14T07:13:54.536Z,33.91
2023-05-14T07:14:26.734Z,33.71
2023-05-14T07:15:01.425Z,34.36